sensor_id;sensor_type;location;lat;lon;timestamp;pressure;altitude;pressure_sealevel;temperature;humidity
71195;BME280;58908;51.426;7.714;2024-03-25T00:01:22;98806.06;;;5.40;100.00
71195;BME280;58908;51.426;7.714;2024-03-25T00:03:49;98797.81;;;5.31;100.00
71195;BME280;58908;51.426;7.714;2024-03-25T00:06:16;98802.28;;;5.29;100.00
71195;BME280;58908;51.426;7.714;2024-03-25T00:08:43;98797.75;;;5.32;100.00
71195;BME280;58908;51.426;7.714;2024-03-25T00:11:08;98799.50;;;5.32;100.00
71195;BME280;58908;51.426;7.714;2024-03-25T00:13:34;98807.22;;;5.35;100.00
71195;BME280;58908;51.426;7.714;2024-03-25T00:16:00;98809.16;;;5.31;100.00
71195;BME280;58908;51.426;7.714;2024-03-25T00:18:27;98809.22;;;5.30;100.00
71195;BME280;58908;51.426;7.714;2024-03-25T00:20:52;98808.97;;;5.34;100.00
71195;BME280;58908;51.426;7.714;2024-03-25T00:23:19;98812.06;;;5.25;100.00
71195;BME280;58908;51.426;7.714;2024-03-25T00:25:44;98808.38;;;5.29;100.00
71195;BME280;58908;51.426;7.714;2024-03-25T00:28:10;98812.06;;;5.25;100.00
71195;BME280;58908;51.426;7.714;2024-03-25T00:30:36;98804.38;;;5.22;100.00
71195;BME280;58908;51.426;7.714;2024-03-25T00:33:02;98807.00;;;5.22;100.00
71195;BME280;58908;51.426;7.714;2024-03-25T00:35:29;98811.28;;;5.23;100.00
71195;BME280;58908;51.426;7.714;2024-03-25T00:37:55;98808.28;;;5.31;100.00
71195;BME280;58908;51.426;7.714;2024-03-25T00:40:20;98809.22;;;5.30;100.00
71195;BME280;58908;51.426;7.714;2024-03-25T00:42:46;98809.22;;;5.30;100.00
71195;BME280;58908;51.426;7.714;2024-03-25T00:45:12;98819.84;;;5.27;100.00
71195;BME280;58908;51.426;7.714;2024-03-25T00:47:39;98823.59;;;5.21;100.00
71195;BME280;58908;51.426;7.714;2024-03-25T00:50:05;98821.69;;;5.25;100.00
71195;BME280;58908;51.426;7.714;2024-03-25T00:52:33;98830.53;;;5.22;100.00
71195;BME280;58908;51.426;7.714;2024-03-25T00:54:58;98830.34;;;5.25;100.00
71195;BME280;58908;51.426;7.714;2024-03-25T00:57:24;98822.84;;;5.19;100.00
71195;BME280;58908;51.426;7.714;2024-03-25T00:59:49;98818.78;;;5.14;100.00
71195;BME280;58908;51.426;7.714;2024-03-25T01:02:16;98818.44;;;5.20;100.00
71195;BME280;58908;51.426;7.714;2024-03-25T01:04:42;98816.44;;;5.08;100.00
71195;BME280;58908;51.426;7.714;2024-03-25T01:07:08;98817.91;;;5.13;100.00
71195;BME280;58908;51.426;7.714;2024-03-25T01:09:34;98806.63;;;5.13;100.00
71195;BME280;58908;51.426;7.714;2024-03-25T01:12:01;98816.16;;;5.14;100.00
71195;BME280;58908;51.426;7.714;2024-03-25T01:14:26;98817.63;;;5.19;100.00
71195;BME280;58908;51.426;7.714;2024-03-25T01:16:52;98810.38;;;5.07;100.00
71195;BME280;58908;51.426;7.714;2024-03-25T01:19:17;98815.00;;;5.19;100.00
71195;BME280;58908;51.426;7.714;2024-03-25T01:21:46;98814.75;;;5.07;100.00
71195;BME280;58908;51.426;7.714;2024-03-25T01:24:11;98813.38;;;5.17;100.00
71195;BME280;58908;51.426;7.714;2024-03-25T01:26:38;98809.47;;;5.08;100.00
71195;BME280;58908;51.426;7.714;2024-03-25T01:29:04;98808.47;;;5.11;100.00
71195;BME280;58908;51.426;7.714;2024-03-25T01:31:30;98806.63;;;5.13;100.00
71195;BME280;58908;51.426;7.714;2024-03-25T01:33:55;98813.00;;;5.07;100.00
71195;BME280;58908;51.426;7.714;2024-03-25T01:36:22;98811.22;;;5.08;100.00
71195;BME280;58908;51.426;7.714;2024-03-25T01:38:47;98811.44;;;5.03;100.00
71195;BME280;58908;51.426;7.714;2024-03-25T01:41:13;98822.06;;;5.00;100.00
71195;BME280;58908;51.426;7.714;2024-03-25T01:43:41;98814.69;;;5.08;100.00
71195;BME280;58908;51.426;7.714;2024-03-25T01:46:07;98815.16;;;4.99;100.00
71195;BME280;58908;51.426;7.714;2024-03-25T01:48:34;98822.06;;;5.00;100.00
71195;BME280;58908;51.426;7.714;2024-03-25T01:51:00;98819.06;;;4.91;100.00
71195;BME280;58908;51.426;7.714;2024-03-25T01:53:26;98823.22;;;4.95;100.00
71195;BME280;58908;51.426;7.714;2024-03-25T01:55:54;98825.13;;;4.91;100.00
71195;BME280;58908;51.426;7.714;2024-03-25T01:58:21;98818.22;;;4.90;100.00
71195;BME280;58908;51.426;7.714;2024-03-25T02:00:49;98817.91;;;4.96;100.00
71195;BME280;58908;51.426;7.714;2024-03-25T02:03:14;98824.19;;;4.92;100.00
71195;BME280;58908;51.426;7.714;2024-03-25T02:05:41;98820.22;;;4.85;100.00
71195;BME280;58908;51.426;7.714;2024-03-25T02:08:06;98823.53;;;4.89;100.00
71195;BME280;58908;51.426;7.714;2024-03-25T02:10:33;98815.59;;;4.90;100.00
71195;BME280;58908;51.426;7.714;2024-03-25T02:12:58;98815.06;;;4.84;100.00
71195;BME280;58908;51.426;7.714;2024-03-25T02:15:25;98822.13;;;4.82;100.00
71195;BME280;58908;51.426;7.714;2024-03-25T02:17:52;98826.72;;;4.77;100.00
71195;BME280;58908;51.426;7.714;2024-03-25T02:20:19;98828.06;;;4.85;100.00
71195;BME280;58908;51.426;7.714;2024-03-25T02:22:44;98820.97;;;4.87;100.00
71195;BME280;58908;51.426;7.714;2024-03-25T02:25:10;98821.19;;;4.83;100.00
71195;BME280;58908;51.426;7.714;2024-03-25T02:27:38;98814.34;;;4.80;100.00
71195;BME280;58908;51.426;7.714;2024-03-25T02:30:04;98817.88;;;4.79;100.00
71195;BME280;58908;51.426;7.714;2024-03-25T02:32:30;98826.66;;;4.78;100.00
71195;BME280;58908;51.426;7.714;2024-03-25T02:34:57;98816.19;;;4.78;100.00
71195;BME280;58908;51.426;7.714;2024-03-25T02:37:22;98823.97;;;4.80;100.00
71195;BME280;58908;51.426;7.714;2024-03-25T02:39:49;98820.19;;;4.68;100.00
71195;BME280;58908;51.426;7.714;2024-03-25T02:42:14;98826.25;;;4.69;100.00
71195;BME280;58908;51.426;7.714;2024-03-25T02:44:42;98819.41;;;4.66;100.00
71195;BME280;58908;51.426;7.714;2024-03-25T02:47:08;98830.13;;;4.60;100.00
71195;BME280;58908;51.426;7.714;2024-03-25T02:49:34;98829.75;;;4.51;100.00
71195;BME280;58908;51.426;7.714;2024-03-25T02:52:00;98831.28;;;4.55;100.00
71195;BME280;58908;51.426;7.714;2024-03-25T02:54:26;98834.38;;;4.63;100.00
71195;BME280;58908;51.426;7.714;2024-03-25T02:56:52;98836.00;;;4.65;100.00
71195;BME280;58908;51.426;7.714;2024-03-25T02:59:18;98828.38;;;4.61;100.00
71195;BME280;58908;51.426;7.714;2024-03-25T03:01:45;98827.03;;;4.71;100.00
71195;BME280;58908;51.426;7.714;2024-03-25T03:04:11;98825.66;;;4.81;100.00
71195;BME280;58908;51.426;7.714;2024-03-25T03:06:36;98837.88;;;4.80;100.00
71195;BME280;58908;51.426;7.714;2024-03-25T03:09:02;98831.03;;;4.78;100.00
71195;BME280;58908;51.426;7.714;2024-03-25T03:11:28;98838.72;;;4.81;100.00
71195;BME280;58908;51.426;7.714;2024-03-25T03:13:54;98835.34;;;4.79;100.00
71195;BME280;58908;51.426;7.714;2024-03-25T03:16:19;98844.94;;;4.78;100.00
71195;BME280;58908;51.426;7.714;2024-03-25T03:18:47;98841.72;;;4.73;100.00
71195;BME280;58908;51.426;7.714;2024-03-25T03:21:12;98839.16;;;4.72;100.00
71195;BME280;58908;51.426;7.714;2024-03-25T03:23:38;98843.78;;;4.67;100.00
71195;BME280;58908;51.426;7.714;2024-03-25T03:26:04;98838.91;;;4.59;100.00
71195;BME280;58908;51.426;7.714;2024-03-25T03:28:30;98838.78;;;4.63;100.00
71195;BME280;58908;51.426;7.714;2024-03-25T03:30:55;98834.53;;;4.60;100.00
71195;BME280;58908;51.426;7.714;2024-03-25T03:33:22;98840.69;;;4.59;100.00
71195;BME280;58908;51.426;7.714;2024-03-25T03:35:49;98833.66;;;4.59;100.00
71195;BME280;58908;51.426;7.714;2024-03-25T03:38:15;98829.91;;;4.65;100.00
71195;BME280;58908;51.426;7.714;2024-03-25T03:40:40;98837.91;;;4.62;100.00
71195;BME280;58908;51.426;7.714;2024-03-25T03:43:06;98834.47;;;4.62;100.00
71195;BME280;58908;51.426;7.714;2024-03-25T03:45:33;98830.94;;;4.63;100.00
71195;BME280;58908;51.426;7.714;2024-03-25T03:47:59;98831.59;;;4.66;100.00
71195;BME280;58908;51.426;7.714;2024-03-25T03:50:25;98830.00;;;4.63;100.00
71195;BME280;58908;51.426;7.714;2024-03-25T03:52:52;98822.63;;;4.71;100.00
71195;BME280;58908;51.426;7.714;2024-03-25T03:55:18;98832.31;;;4.69;100.00
71195;BME280;58908;51.426;7.714;2024-03-25T03:57:44;98826.09;;;4.72;100.00
71195;BME280;58908;51.426;7.714;2024-03-25T04:00:10;98828.88;;;4.69;100.00
71195;BME280;58908;51.426;7.714;2024-03-25T04:02:37;98828.16;;;4.65;100.00
71195;BME280;58908;51.426;7.714;2024-03-25T04:05:03;98827.25;;;4.66;100.00
71195;BME280;58908;51.426;7.714;2024-03-25T04:07:29;98834.16;;;4.67;100.00
71195;BME280;58908;51.426;7.714;2024-03-25T04:09:58;98823.78;;;4.66;100.00
71195;BME280;58908;51.426;7.714;2024-03-25T04:12:24;98836.50;;;4.73;100.00
71195;BME280;58908;51.426;7.714;2024-03-25T04:14:50;98827.94;;;4.70;100.00
71195;BME280;58908;51.426;7.714;2024-03-25T04:17:20;98823.94;;;4.63;100.00
71195;BME280;58908;51.426;7.714;2024-03-25T04:19:45;98826.25;;;4.69;100.00
71195;BME280;58908;51.426;7.714;2024-03-25T04:22:12;98823.50;;;4.72;100.00
71195;BME280;58908;51.426;7.714;2024-03-25T04:24:37;98823.50;;;4.72;100.00
71195;BME280;58908;51.426;7.714;2024-03-25T04:27:05;98834.81;;;4.72;100.00
71195;BME280;58908;51.426;7.714;2024-03-25T04:29:30;98824.56;;;4.68;100.00
71195;BME280;58908;51.426;7.714;2024-03-25T04:31:56;98831.47;;;4.69;100.00
71195;BME280;58908;51.426;7.714;2024-03-25T04:34:22;98831.38;;;4.70;100.00
71195;BME280;58908;51.426;7.714;2024-03-25T04:36:48;98839.22;;;4.70;100.00
71195;BME280;58908;51.426;7.714;2024-03-25T04:39:13;98834.91;;;4.69;100.00
71195;BME280;58908;51.426;7.714;2024-03-25T04:41:39;98844.16;;;4.76;100.00
71195;BME280;58908;51.426;7.714;2024-03-25T04:44:05;98837.53;;;4.69;100.00
71195;BME280;58908;51.426;7.714;2024-03-25T04:46:31;98837.41;;;4.72;100.00
71195;BME280;58908;51.426;7.714;2024-03-25T04:48:56;98834.22;;;4.66;100.00
71195;BME280;58908;51.426;7.714;2024-03-25T04:51:22;98841.16;;;4.67;100.00
71195;BME280;58908;51.426;7.714;2024-03-25T04:53:47;98837.00;;;4.63;100.00
71195;BME280;58908;51.426;7.714;2024-03-25T04:56:12;98842.97;;;4.65;100.00
71195;BME280;58908;51.426;7.714;2024-03-25T04:58:38;98840.47;;;4.63;100.00
71195;BME280;58908;51.426;7.714;2024-03-25T05:01:05;98850.91;;;4.63;100.00
71195;BME280;58908;51.426;7.714;2024-03-25T05:03:30;98846.66;;;4.61;100.00
71195;BME280;58908;51.426;7.714;2024-03-25T05:05:56;98856.34;;;4.59;100.00
71195;BME280;58908;51.426;7.714;2024-03-25T05:08:21;98856.34;;;4.59;100.00
71195;BME280;58908;51.426;7.714;2024-03-25T05:10:47;98849.44;;;4.58;100.00
71195;BME280;58908;51.426;7.714;2024-03-25T05:13:12;98854.16;;;4.50;100.00
71195;BME280;58908;51.426;7.714;2024-03-25T05:15:37;98865.59;;;4.48;100.00
71195;BME280;58908;51.426;7.714;2024-03-25T05:18:04;98857.06;;;4.44;100.00
71195;BME280;58908;51.426;7.714;2024-03-25T05:20:30;98866.72;;;4.42;100.00
71195;BME280;58908;51.426;7.714;2024-03-25T05:22:55;98863.56;;;4.36;100.00
71195;BME280;58908;51.426;7.714;2024-03-25T05:25:20;98865.44;;;4.32;100.00
71195;BME280;58908;51.426;7.714;2024-03-25T05:27:46;98870.31;;;4.21;100.00
71195;BME280;58908;51.426;7.714;2024-03-25T05:30:12;98876.47;;;4.20;100.00
71195;BME280;58908;51.426;7.714;2024-03-25T05:32:37;98876.09;;;4.28;100.00
71195;BME280;58908;51.426;7.714;2024-03-25T05:35:04;98882.03;;;4.31;100.00
71195;BME280;58908;51.426;7.714;2024-03-25T05:37:30;98872.16;;;4.38;100.00
71195;BME280;58908;51.426;7.714;2024-03-25T05:39:55;98874.84;;;4.36;100.00
71195;BME280;58908;51.426;7.714;2024-03-25T05:42:21;98886.78;;;4.42;100.00
71195;BME280;58908;51.426;7.714;2024-03-25T05:44:46;98883.31;;;4.41;100.00
71195;BME280;58908;51.426;7.714;2024-03-25T05:47:11;98882.03;;;4.50;100.00
71195;BME280;58908;51.426;7.714;2024-03-25T05:49:37;98878.84;;;4.43;100.00
71195;BME280;58908;51.426;7.714;2024-03-25T05:52:04;98884.78;;;4.47;100.00
71195;BME280;58908;51.426;7.714;2024-03-25T05:54:29;98878.63;;;4.48;100.00
71195;BME280;58908;51.426;7.714;2024-03-25T05:56:55;98884.00;;;4.45;100.00
71195;BME280;58908;51.426;7.714;2024-03-25T05:59:20;98881.13;;;4.51;100.00
71195;BME280;58908;51.426;7.714;2024-03-25T06:01:45;98890.94;;;4.46;100.00
71195;BME280;58908;51.426;7.714;2024-03-25T06:04:11;98890.44;;;4.38;100.00
71195;BME280;58908;51.426;7.714;2024-03-25T06:06:36;98896.31;;;4.43;100.00
71195;BME280;58908;51.426;7.714;2024-03-25T06:09:03;98895.94;;;4.50;100.00
71195;BME280;58908;51.426;7.714;2024-03-25T06:11:29;98889.84;;;4.50;100.00
71195;BME280;58908;51.426;7.714;2024-03-25T06:13:54;98895.88;;;4.52;100.00
71195;BME280;58908;51.426;7.714;2024-03-25T06:16:19;98899.41;;;4.51;100.00
71195;BME280;58908;51.426;7.714;2024-03-25T06:18:45;98902.44;;;4.60;100.00
71195;BME280;58908;51.426;7.714;2024-03-25T06:21:10;98907.13;;;4.70;100.00
71195;BME280;58908;51.426;7.714;2024-03-25T06:23:35;98900.88;;;4.74;100.00
71195;BME280;58908;51.426;7.714;2024-03-25T06:26:03;98899.50;;;4.66;100.00
71195;BME280;58908;51.426;7.714;2024-03-25T06:28:28;98902.91;;;4.86;100.00
71195;BME280;58908;51.426;7.714;2024-03-25T06:30:53;98893.09;;;5.25;100.00
71195;BME280;58908;51.426;7.714;2024-03-25T06:33:37;98892.22;;;6.25;100.00
71195;BME280;58908;51.426;7.714;2024-03-25T06:36:21;98886.25;;;7.01;100.00
71195;BME280;58908;51.426;7.714;2024-03-25T06:38:47;98902.09;;;7.58;100.00
71195;BME280;58908;51.426;7.714;2024-03-25T06:41:14;98899.94;;;8.08;100.00
71195;BME280;58908;51.426;7.714;2024-03-25T06:43:39;98903.31;;;8.10;100.00
71195;BME280;58908;51.426;7.714;2024-03-25T06:46:05;98903.97;;;8.69;100.00
71195;BME280;58908;51.426;7.714;2024-03-25T06:48:31;98893.72;;;8.79;100.00
71195;BME280;58908;51.426;7.714;2024-03-25T06:50:57;98889.41;;;9.04;100.00
71195;BME280;58908;51.426;7.714;2024-03-25T06:53:22;98890.34;;;9.93;100.00
71195;BME280;58908;51.426;7.714;2024-03-25T06:55:52;98890.50;;;9.14;100.00
71195;BME280;58908;51.426;7.714;2024-03-25T06:58:19;98904.97;;;7.83;100.00
71195;BME280;58908;51.426;7.714;2024-03-25T07:00:45;98909.19;;;7.85;100.00
71195;BME280;58908;51.426;7.714;2024-03-25T07:03:10;98905.50;;;9.00;100.00
71195;BME280;58908;51.426;7.714;2024-03-25T07:05:35;98895.72;;;9.67;100.00
71195;BME280;58908;51.426;7.714;2024-03-25T07:08:01;98898.47;;;9.39;100.00
71195;BME280;58908;51.426;7.714;2024-03-25T07:10:26;98894.78;;;9.68;100.00
71195;BME280;58908;51.426;7.714;2024-03-25T07:12:51;98898.72;;;9.48;100.00
71195;BME280;58908;51.426;7.714;2024-03-25T07:15:18;98897.66;;;9.90;100.00
71195;BME280;58908;51.426;7.714;2024-03-25T07:17:44;98885.63;;;9.98;100.00
71195;BME280;58908;51.426;7.714;2024-03-25T07:20:09;98875.38;;;10.44;100.00
71195;BME280;58908;51.426;7.714;2024-03-25T07:22:35;98868.97;;;11.89;100.00
71195;BME280;58908;51.426;7.714;2024-03-25T07:25:00;98871.78;;;12.20;100.00
71195;BME280;58908;51.426;7.714;2024-03-25T07:27:26;98882.88;;;10.50;100.00
71195;BME280;58908;51.426;7.714;2024-03-25T07:29:51;98904.00;;;9.61;100.00
71195;BME280;58908;51.426;7.714;2024-03-25T07:32:18;98923.09;;;8.85;100.00
71195;BME280;58908;51.426;7.714;2024-03-25T07:34:43;98930.41;;;8.94;100.00
71195;BME280;58908;51.426;7.714;2024-03-25T07:37:08;98927.88;;;9.19;100.00
71195;BME280;58908;51.426;7.714;2024-03-25T07:39:34;98919.06;;;8.80;100.00
71195;BME280;58908;51.426;7.714;2024-03-25T07:41:59;98921.19;;;8.87;100.00
71195;BME280;58908;51.426;7.714;2024-03-25T07:44:25;98933.47;;;8.60;100.00
71195;BME280;58908;51.426;7.714;2024-03-25T07:46:50;98935.25;;;8.46;100.00
71195;BME280;58908;51.426;7.714;2024-03-25T07:49:17;98935.50;;;8.55;100.00
71195;BME280;58908;51.426;7.714;2024-03-25T07:51:42;98927.47;;;8.99;100.00
71195;BME280;58908;51.426;7.714;2024-03-25T07:54:07;98927.94;;;9.32;100.00
71195;BME280;58908;51.426;7.714;2024-03-25T07:56:33;98920.25;;;9.29;100.00
71195;BME280;58908;51.426;7.714;2024-03-25T07:58:58;98925.44;;;9.43;100.00
71195;BME280;58908;51.426;7.714;2024-03-25T08:01:24;98905.84;;;9.34;100.00
71195;BME280;58908;51.426;7.714;2024-03-25T08:03:50;98898.09;;;9.45;100.00
71195;BME280;58908;51.426;7.714;2024-03-25T08:06:16;98906.22;;;10.06;100.00
71195;BME280;58908;51.426;7.714;2024-03-25T08:08:42;98888.22;;;9.61;100.00
71195;BME280;58908;51.426;7.714;2024-03-25T08:11:07;98888.16;;;9.87;100.00
71195;BME280;58908;51.426;7.714;2024-03-25T08:13:33;98897.69;;;9.25;100.00
71195;BME280;58908;51.426;7.714;2024-03-25T08:15:58;98907.41;;;9.24;100.00
71195;BME280;58908;51.426;7.714;2024-03-25T08:18:23;98910.75;;;9.26;100.00
71195;BME280;58908;51.426;7.714;2024-03-25T08:20:49;98903.06;;;9.62;100.00
71195;BME280;58908;51.426;7.714;2024-03-25T08:23:16;98898.38;;;9.92;100.00
71195;BME280;58908;51.426;7.714;2024-03-25T08:25:41;98900.94;;;9.54;100.00
71195;BME280;58908;51.426;7.714;2024-03-25T08:28:06;98906.75;;;10.11;100.00
71195;BME280;58908;51.426;7.714;2024-03-25T08:30:32;98900.28;;;10.27;100.00
71195;BME280;58908;51.426;7.714;2024-03-25T08:32:57;98898.94;;;10.09;100.00
71195;BME280;58908;51.426;7.714;2024-03-25T08:35:23;98908.66;;;9.82;100.00
71195;BME280;58908;51.426;7.714;2024-03-25T08:37:48;98897.00;;;9.35;100.00
71195;BME280;58908;51.426;7.714;2024-03-25T08:40:15;98894.75;;;9.17;100.00
71195;BME280;58908;51.426;7.714;2024-03-25T08:42:40;98917.88;;;8.71;100.00
71195;BME280;58908;51.426;7.714;2024-03-25T08:45:06;98902.00;;;8.59;100.00
71195;BME280;58908;51.426;7.714;2024-03-25T08:47:31;98908.16;;;8.86;100.00
71195;BME280;58908;51.426;7.714;2024-03-25T08:49:57;98911.34;;;8.22;100.00
71195;BME280;58908;51.426;7.714;2024-03-25T08:52:22;98911.00;;;8.13;100.00
71195;BME280;58908;51.426;7.714;2024-03-25T08:54:47;98915.91;;;8.75;100.00
71195;BME280;58908;51.426;7.714;2024-03-25T08:57:14;98885.75;;;10.47;100.00
71195;BME280;58908;51.426;7.714;2024-03-25T08:59:39;98876.34;;;11.62;100.00
71195;BME280;58908;51.426;7.714;2024-03-25T09:02:05;98851.38;;;11.42;100.00
71195;BME280;58908;51.426;7.714;2024-03-25T09:04:30;98840.97;;;12.96;99.14
71195;BME280;58908;51.426;7.714;2024-03-25T09:06:56;98861.13;;;11.53;100.00
71195;BME280;58908;51.426;7.714;2024-03-25T09:09:21;98848.22;;;12.50;99.39
71195;BME280;58908;51.426;7.714;2024-03-25T09:12:05;98847.94;;;11.87;97.25
71195;BME280;58908;51.426;7.714;2024-03-25T09:14:32;98819.25;;;12.91;91.01
71195;BME280;58908;51.426;7.714;2024-03-25T09:16:57;98830.66;;;12.16;92.69
71195;BME280;58908;51.426;7.714;2024-03-25T09:19:23;98855.56;;;11.68;95.54
71195;BME280;58908;51.426;7.714;2024-03-25T09:21:48;98811.34;;;13.54;87.17
71195;BME280;58908;51.426;7.714;2024-03-25T09:24:13;98814.63;;;13.87;85.30
71195;BME280;58908;51.426;7.714;2024-03-25T09:26:39;98805.16;;;12.37;79.91
71195;BME280;58908;51.426;7.714;2024-03-25T09:29:04;98835.50;;;10.61;84.26
71195;BME280;58908;51.426;7.714;2024-03-25T09:31:31;98857.81;;;9.82;88.60
71195;BME280;58908;51.426;7.714;2024-03-25T09:33:57;98871.03;;;9.55;90.96
71195;BME280;58908;51.426;7.714;2024-03-25T09:36:22;98848.47;;;11.34;89.37
71195;BME280;58908;51.426;7.714;2024-03-25T09:38:47;98838.13;;;12.33;88.70
71195;BME280;58908;51.426;7.714;2024-03-25T09:41:13;98817.19;;;11.86;81.93
71195;BME280;58908;51.426;7.714;2024-03-25T09:43:40;98811.28;;;11.83;81.27
71195;BME280;58908;51.426;7.714;2024-03-25T09:46:07;98819.50;;;12.12;83.92
71195;BME280;58908;51.426;7.714;2024-03-25T09:48:34;98799.81;;;13.23;79.15
71195;BME280;58908;51.426;7.714;2024-03-25T09:51:00;98805.38;;;13.82;82.55
71195;BME280;58908;51.426;7.714;2024-03-25T09:53:27;98801.31;;;14.28;80.50
71195;BME280;58908;51.426;7.714;2024-03-25T09:55:52;98797.41;;;13.20;75.85
71195;BME280;58908;51.426;7.714;2024-03-25T09:58:17;98809.88;;;12.11;77.01
71195;BME280;58908;51.426;7.714;2024-03-25T10:00:43;98810.69;;;12.56;78.24
71195;BME280;58908;51.426;7.714;2024-03-25T10:03:10;98794.81;;;12.45;73.95
71195;BME280;58908;51.426;7.714;2024-03-25T10:05:36;98818.63;;;11.10;77.22
71195;BME280;58908;51.426;7.714;2024-03-25T10:08:03;98847.06;;;11.18;83.89
71195;BME280;58908;51.426;7.714;2024-03-25T10:10:28;98856.84;;;10.81;89.23
71195;BME280;58908;51.426;7.714;2024-03-25T10:12:54;98876.69;;;9.37;91.47
71195;BME280;58908;51.426;7.714;2024-03-25T10:15:20;98879.34;;;9.11;94.84
71195;BME280;58908;51.426;7.714;2024-03-25T10:17:45;98890.19;;;9.57;99.38
71195;BME280;58908;51.426;7.714;2024-03-25T10:20:13;98898.03;;;9.84;100.00
71195;BME280;58908;51.426;7.714;2024-03-25T10:22:41;98879.63;;;9.96;100.00
71195;BME280;58908;51.426;7.714;2024-03-25T10:25:07;98862.44;;;9.78;95.45
71195;BME280;58908;51.426;7.714;2024-03-25T10:27:33;98860.16;;;10.11;97.02
71195;BME280;58908;51.426;7.714;2024-03-25T10:29:59;98852.66;;;10.18;97.59
71195;BME280;58908;51.426;7.714;2024-03-25T10:32:24;98810.66;;;10.40;87.81
71195;BME280;58908;51.426;7.714;2024-03-25T10:34:50;98798.97;;;10.31;84.16
71195;BME280;58908;51.426;7.714;2024-03-25T10:37:15;98803.31;;;10.92;86.43
71195;BME280;58908;51.426;7.714;2024-03-25T10:39:43;98819.97;;;11.16;93.08
71195;BME280;58908;51.426;7.714;2024-03-25T10:42:13;98815.16;;;11.21;92.77
71195;BME280;58908;51.426;7.714;2024-03-25T10:44:39;98810.19;;;11.40;89.83
71195;BME280;58908;51.426;7.714;2024-03-25T10:47:05;98811.53;;;11.69;88.27
71195;BME280;58908;51.426;7.714;2024-03-25T10:49:32;98802.41;;;11.84;87.70
71195;BME280;58908;51.426;7.714;2024-03-25T10:51:59;98793.13;;;11.67;83.14
71195;BME280;58908;51.426;7.714;2024-03-25T10:54:25;98787.84;;;11.67;83.85
71195;BME280;58908;51.426;7.714;2024-03-25T10:56:52;98784.84;;;10.92;81.68
71195;BME280;58908;51.426;7.714;2024-03-25T10:59:18;98799.03;;;10.78;84.29
71195;BME280;58908;51.426;7.714;2024-03-25T11:01:43;98802.41;;;11.04;86.69
71195;BME280;58908;51.426;7.714;2024-03-25T11:04:09;98777.34;;;10.39;82.03
71195;BME280;58908;51.426;7.714;2024-03-25T11:06:34;98790.13;;;10.20;84.50
71195;BME280;58908;51.426;7.714;2024-03-25T11:09:00;98794.88;;;10.27;85.01
71195;BME280;58908;51.426;7.714;2024-03-25T11:11:30;98796.56;;;10.64;85.34
71195;BME280;58908;51.426;7.714;2024-03-25T11:13:57;98773.78;;;10.63;82.67
71195;BME280;58908;51.426;7.714;2024-03-25T11:16:26;98788.16;;;11.06;86.28
71195;BME280;58908;51.426;7.714;2024-03-25T11:18:51;98787.53;;;11.03;86.61
71195;BME280;58908;51.426;7.714;2024-03-25T11:21:23;98761.03;;;10.81;79.97
71195;BME280;58908;51.426;7.714;2024-03-25T11:23:51;98781.84;;;10.73;84.14
71195;BME280;58908;51.426;7.714;2024-03-25T11:26:18;98777.72;;;10.58;85.83
71195;BME280;58908;51.426;7.714;2024-03-25T11:28:43;98765.50;;;10.44;84.83
71195;BME280;58908;51.426;7.714;2024-03-25T11:31:10;98773.84;;;9.90;84.84
71195;BME280;58908;51.426;7.714;2024-03-25T11:33:36;98772.44;;;9.97;85.31
71195;BME280;58908;51.426;7.714;2024-03-25T11:36:02;98763.03;;;10.54;83.55
71195;BME280;58908;51.426;7.714;2024-03-25T11:38:27;98762.03;;;10.91;85.41
71195;BME280;58908;51.426;7.714;2024-03-25T11:40:52;98744.06;;;10.96;82.06
71195;BME280;58908;51.426;7.714;2024-03-25T11:43:18;98745.88;;;10.95;80.72
71195;BME280;58908;51.426;7.714;2024-03-25T11:45:46;98711.16;;;10.78;75.08
71195;BME280;58908;51.426;7.714;2024-03-25T11:48:13;98716.75;;;11.08;76.27
71195;BME280;58908;51.426;7.714;2024-03-25T11:50:38;98717.53;;;11.32;76.28
71195;BME280;58908;51.426;7.714;2024-03-25T11:53:04;98735.41;;;11.17;80.13
71195;BME280;58908;51.426;7.714;2024-03-25T11:55:30;98727.69;;;11.14;77.13
71195;BME280;58908;51.426;7.714;2024-03-25T11:57:55;98712.91;;;11.01;76.35
71195;BME280;58908;51.426;7.714;2024-03-25T12:00:21;98719.19;;;10.76;77.01
71195;BME280;58908;51.426;7.714;2024-03-25T12:02:46;98711.50;;;10.50;76.18
71195;BME280;58908;51.426;7.714;2024-03-25T12:05:13;98713.22;;;10.85;76.31
71195;BME280;58908;51.426;7.714;2024-03-25T12:07:39;98715.91;;;10.96;77.50
71195;BME280;58908;51.426;7.714;2024-03-25T12:10:04;98690.38;;;9.90;72.90
71195;BME280;58908;51.426;7.714;2024-03-25T12:12:48;98694.19;;;9.86;75.21
71195;BME280;58908;51.426;7.714;2024-03-25T12:15:13;98687.16;;;10.23;74.61
71195;BME280;58908;51.426;7.714;2024-03-25T12:17:39;98679.75;;;9.79;72.43
71195;BME280;58908;51.426;7.714;2024-03-25T12:20:05;98678.53;;;9.60;74.38
71195;BME280;58908;51.426;7.714;2024-03-25T12:22:32;98680.09;;;9.75;74.46
71195;BME280;58908;51.426;7.714;2024-03-25T12:24:58;98670.66;;;9.96;75.66
71195;BME280;58908;51.426;7.714;2024-03-25T12:27:24;98665.47;;;9.71;74.53
71195;BME280;58908;51.426;7.714;2024-03-25T12:29:56;98672.59;;;9.81;74.92
71195;BME280;58908;51.426;7.714;2024-03-25T12:32:22;98672.09;;;9.76;74.57
71195;BME280;58908;51.426;7.714;2024-03-25T12:34:55;98668.03;;;9.96;75.60
71195;BME280;58908;51.426;7.714;2024-03-25T12:37:20;98667.13;;;10.20;78.51
71195;BME280;58908;51.426;7.714;2024-03-25T12:39:48;98659.78;;;10.60;78.10
71195;BME280;58908;51.426;7.714;2024-03-25T12:42:13;98664.28;;;10.47;80.26
71195;BME280;58908;51.426;7.714;2024-03-25T12:44:39;98656.94;;;10.39;76.90
71195;BME280;58908;51.426;7.714;2024-03-25T12:47:04;98643.25;;;10.34;75.63
71195;BME280;58908;51.426;7.714;2024-03-25T12:49:30;98635.13;;;9.78;72.70
71195;BME280;58908;51.426;7.714;2024-03-25T12:51:55;98632.97;;;10.19;74.56
71195;BME280;58908;51.426;7.714;2024-03-25T12:54:20;98631.34;;;10.52;74.30